sensor_id;sensor_type;location;lat;lon;timestamp;P1;durP1;ratioP1;P2;durP2;ratioP2
62024;SDS011;47978;49.118;12.146;2022-11-12T00:00:41;3.20;;;2.45;;
62024;SDS011;47978;49.118;12.146;2022-11-12T00:03:08;3.67;;;2.75;;
62024;SDS011;47978;49.118;12.146;2022-11-12T00:05:35;5.40;;;3.10;;
62024;SDS011;47978;49.118;12.146;2022-11-12T00:08:02;4.80;;;3.20;;
62024;SDS011;47978;49.118;12.146;2022-11-12T00:10:29;5.32;;;3.13;;
62024;SDS011;47978;49.118;12.146;2022-11-12T00:12:57;6.05;;;3.28;;
62024;SDS011;47978;49.118;12.146;2022-11-12T00:15:25;4.07;;;3.00;;
62024;SDS011;47978;49.118;12.146;2022-11-12T00:17:51;9.25;;;2.83;;
62024;SDS011;47978;49.118;12.146;2022-11-12T00:20:18;3.80;;;3.00;;
62024;SDS011;47978;49.118;12.146;2022-11-12T00:22:45;9.23;;;2.97;;
62024;SDS011;47978;49.118;12.146;2022-11-12T00:25:11;5.85;;;3.50;;
62024;SDS011;47978;49.118;12.146;2022-11-12T00:27:38;4.88;;;3.20;;
62024;SDS011;47978;49.118;12.146;2022-11-12T00:30:07;27.70;;;4.40;;
62024;SDS011;47978;49.118;12.146;2022-11-12T00:32:34;18.15;;;3.42;;
62024;SDS011;47978;49.118;12.146;2022-11-12T00:35:01;10.18;;;3.05;;
62024;SDS011;47978;49.118;12.146;2022-11-12T00:37:28;9.40;;;2.85;;
62024;SDS011;47978;49.118;12.146;2022-11-12T00:39:54;3.50;;;2.40;;
62024;SDS011;47978;49.118;12.146;2022-11-12T00:42:21;3.40;;;2.50;;
62024;SDS011;47978;49.118;12.146;2022-11-12T00:44:47;6.90;;;2.58;;
62024;SDS011;47978;49.118;12.146;2022-11-12T00:47:15;3.60;;;2.70;;
62024;SDS011;47978;49.118;12.146;2022-11-12T00:49:42;4.03;;;2.70;;
62024;SDS011;47978;49.118;12.146;2022-11-12T00:52:09;3.13;;;2.38;;
62024;SDS011;47978;49.118;12.146;2022-11-12T00:54:35;4.20;;;3.00;;
62024;SDS011;47978;49.118;12.146;2022-11-12T00:57:02;4.07;;;2.80;;
62024;SDS011;47978;49.118;12.146;2022-11-12T00:59:28;6.93;;;3.05;;
62024;SDS011;47978;49.118;12.146;2022-11-12T01:01:55;4.22;;;2.97;;
62024;SDS011;47978;49.118;12.146;2022-11-12T01:04:23;4.20;;;3.00;;
62024;SDS011;47978;49.118;12.146;2022-11-12T01:06:50;7.03;;;4.68;;
62024;SDS011;47978;49.118;12.146;2022-11-12T01:09:16;4.20;;;2.80;;
62024;SDS011;47978;49.118;12.146;2022-11-12T01:11:43;4.78;;;2.78;;
62024;SDS011;47978;49.118;12.146;2022-11-12T01:14:09;4.60;;;3.17;;
62024;SDS011;47978;49.118;12.146;2022-11-12T01:16:38;3.30;;;2.80;;
62024;SDS011;47978;49.118;12.146;2022-11-12T01:19:05;7.43;;;2.60;;
62024;SDS011;47978;49.118;12.146;2022-11-12T01:21:37;5.15;;;2.83;;
62024;SDS011;47978;49.118;12.146;2022-11-12T01:26:32;4.72;;;2.80;;
62024;SDS011;47978;49.118;12.146;2022-11-12T01:28:59;3.70;;;2.55;;
62024;SDS011;47978;49.118;12.146;2022-11-12T01:31:27;3.75;;;2.40;;
62024;SDS011;47978;49.118;12.146;2022-11-12T01:33:55;2.92;;;2.13;;
62024;SDS011;47978;49.118;12.146;2022-11-12T01:36:24;3.50;;;2.20;;
62024;SDS011;47978;49.118;12.146;2022-11-12T01:38:54;4.15;;;2.30;;
62024;SDS011;47978;49.118;12.146;2022-11-12T01:41:21;3.42;;;1.85;;
62024;SDS011;47978;49.118;12.146;2022-11-12T01:46:42;3.17;;;2.50;;
62024;SDS011;47978;49.118;12.146;2022-11-12T01:49:17;4.00;;;2.50;;
62024;SDS011;47978;49.118;12.146;2022-11-12T01:51:47;3.03;;;2.27;;
62024;SDS011;47978;49.118;12.146;2022-11-12T01:54:18;2.92;;;1.92;;
62024;SDS011;47978;49.118;12.146;2022-11-12T01:56:46;4.15;;;3.00;;
62024;SDS011;47978;49.118;12.146;2022-11-12T01:59:16;4.68;;;2.17;;
62024;SDS011;47978;49.118;12.146;2022-11-12T02:01:47;2.85;;;1.90;;
62024;SDS011;47978;49.118;12.146;2022-11-12T02:04:13;3.25;;;2.17;;
62024;SDS011;47978;49.118;12.146;2022-11-12T02:06:40;3.75;;;2.10;;
62024;SDS011;47978;49.118;12.146;2022-11-12T02:09:09;2.70;;;1.95;;
62024;SDS011;47978;49.118;12.146;2022-11-12T02:11:38;3.13;;;2.13;;
62024;SDS011;47978;49.118;12.146;2022-11-12T02:14:04;3.65;;;2.20;;
62024;SDS011;47978;49.118;12.146;2022-11-12T02:16:32;4.43;;;2.60;;
62024;SDS011;47978;49.118;12.146;2022-11-12T02:19:01;3.60;;;2.40;;
62024;SDS011;47978;49.118;12.146;2022-11-12T02:21:30;3.78;;;2.67;;
62024;SDS011;47978;49.118;12.146;2022-11-12T02:23:57;3.75;;;2.33;;
62024;SDS011;47978;49.118;12.146;2022-11-12T02:26:26;2.78;;;2.00;;
62024;SDS011;47978;49.118;12.146;2022-11-12T02:28:55;3.75;;;2.40;;
62024;SDS011;47978;49.118;12.146;2022-11-12T02:31:21;3.00;;;2.47;;
62024;SDS011;47978;49.118;12.146;2022-11-12T02:33:48;3.42;;;2.20;;
62024;SDS011;47978;49.118;12.146;2022-11-12T02:36:15;3.28;;;2.30;;
62024;SDS011;47978;49.118;12.146;2022-11-12T02:38:43;2.47;;;1.77;;
62024;SDS011;47978;49.118;12.146;2022-11-12T02:41:09;3.10;;;2.17;;
62024;SDS011;47978;49.118;12.146;2022-11-12T02:43:36;3.15;;;2.28;;
62024;SDS011;47978;49.118;12.146;2022-11-12T02:46:02;4.10;;;1.98;;
62024;SDS011;47978;49.118;12.146;2022-11-12T02:48:29;2.92;;;1.98;;
62024;SDS011;47978;49.118;12.146;2022-11-12T02:50:56;3.13;;;2.00;;
62024;SDS011;47978;49.118;12.146;2022-11-12T02:53:22;2.45;;;1.80;;
62024;SDS011;47978;49.118;12.146;2022-11-12T02:55:50;2.90;;;2.05;;
62024;SDS011;47978;49.118;12.146;2022-11-12T02:58:17;2.78;;;1.90;;
62024;SDS011;47978;49.118;12.146;2022-11-12T03:00:44;2.65;;;1.85;;
62024;SDS011;47978;49.118;12.146;2022-11-12T03:03:10;2.40;;;1.85;;
62024;SDS011;47978;49.118;12.146;2022-11-12T03:05:37;2.50;;;1.73;;
62024;SDS011;47978;49.118;12.146;2022-11-12T03:08:04;3.17;;;2.10;;
62024;SDS011;47978;49.118;12.146;2022-11-12T03:10:35;3.65;;;1.65;;
62024;SDS011;47978;49.118;12.146;2022-11-12T03:13:05;3.60;;;2.28;;
62024;SDS011;47978;49.118;12.146;2022-11-12T03:15:32;3.03;;;1.98;;
62024;SDS011;47978;49.118;12.146;2022-11-12T03:17:59;2.40;;;1.88;;
62024;SDS011;47978;49.118;12.146;2022-11-12T03:20:25;2.92;;;1.63;;
62024;SDS011;47978;49.118;12.146;2022-11-12T03:22:56;2.22;;;1.75;;
62024;SDS011;47978;49.118;12.146;2022-11-12T03:25:24;2.53;;;1.60;;
62024;SDS011;47978;49.118;12.146;2022-11-12T03:27:57;1.80;;;1.50;;
62024;SDS011;47978;49.118;12.146;2022-11-12T03:30:26;4.03;;;2.53;;
62024;SDS011;47978;49.118;12.146;2022-11-12T03:32:54;3.10;;;1.92;;
62024;SDS011;47978;49.118;12.146;2022-11-12T03:35:20;9.00;;;2.53;;
62024;SDS011;47978;49.118;12.146;2022-11-12T03:37:47;2.75;;;1.88;;
62024;SDS011;47978;49.118;12.146;2022-11-12T03:40:14;2.55;;;1.67;;
62024;SDS011;47978;49.118;12.146;2022-11-12T03:42:44;2.97;;;1.92;;
62024;SDS011;47978;49.118;12.146;2022-11-12T03:45:11;2.42;;;1.80;;
62024;SDS011;47978;49.118;12.146;2022-11-12T03:47:40;3.85;;;2.13;;
62024;SDS011;47978;49.118;12.146;2022-11-12T03:50:08;3.58;;;1.70;;
62024;SDS011;47978;49.118;12.146;2022-11-12T03:52:35;2.55;;;1.90;;
62024;SDS011;47978;49.118;12.146;2022-11-12T03:55:02;2.53;;;1.80;;
62024;SDS011;47978;49.118;12.146;2022-11-12T03:57:29;3.22;;;2.13;;
62024;SDS011;47978;49.118;12.146;2022-11-12T03:59:56;2.45;;;1.70;;
62024;SDS011;47978;49.118;12.146;2022-11-12T04:02:22;2.75;;;1.75;;
62024;SDS011;47978;49.118;12.146;2022-11-12T04:04:50;2.75;;;1.90;;
62024;SDS011;47978;49.118;12.146;2022-11-12T04:07:17;3.42;;;1.85;;
62024;SDS011;47978;49.118;12.146;2022-11-12T04:09:43;8.88;;;2.30;;
62024;SDS011;47978;49.118;12.146;2022-11-12T04:12:10;2.45;;;1.77;;
62024;SDS011;47978;49.118;12.146;2022-11-12T04:14:36;2.50;;;1.90;;
62024;SDS011;47978;49.118;12.146;2022-11-12T04:17:03;2.85;;;1.88;;
62024;SDS011;47978;49.118;12.146;2022-11-12T04:19:29;2.50;;;1.80;;
62024;SDS011;47978;49.118;12.146;2022-11-12T04:21:59;2.38;;;1.77;;
62024;SDS011;47978;49.118;12.146;2022-11-12T04:24:27;2.97;;;2.03;;
62024;SDS011;47978;49.118;12.146;2022-11-12T04:26:55;4.75;;;1.73;;
62024;SDS011;47978;49.118;12.146;2022-11-12T04:29:22;2.30;;;1.60;;
62024;SDS011;47978;49.118;12.146;2022-11-12T04:31:48;2.40;;;1.52;;
62024;SDS011;47978;49.118;12.146;2022-11-12T04:34:15;2.38;;;1.60;;
62024;SDS011;47978;49.118;12.146;2022-11-12T04:36:42;3.08;;;1.70;;
62024;SDS011;47978;49.118;12.146;2022-11-12T04:39:09;4.15;;;1.92;;
62024;SDS011;47978;49.118;12.146;2022-11-12T04:41:36;2.53;;;1.80;;
62024;SDS011;47978;49.118;12.146;2022-11-12T04:44:03;3.47;;;1.73;;
62024;SDS011;47978;49.118;12.146;2022-11-12T04:46:29;2.45;;;1.67;;
62024;SDS011;47978;49.118;12.146;2022-11-12T04:48:56;3.80;;;1.60;;
62024;SDS011;47978;49.118;12.146;2022-11-12T04:51:22;2.28;;;1.55;;
62024;SDS011;47978;49.118;12.146;2022-11-12T04:53:49;4.07;;;1.80;;
62024;SDS011;47978;49.118;12.146;2022-11-12T04:56:17;2.80;;;1.90;;
62024;SDS011;47978;49.118;12.146;2022-11-12T04:58:43;2.40;;;1.63;;
62024;SDS011;47978;49.118;12.146;2022-11-12T05:01:10;5.47;;;1.85;;
62024;SDS011;47978;49.118;12.146;2022-11-12T05:03:37;2.78;;;1.65;;
62024;SDS011;47978;49.118;12.146;2022-11-12T05:06:04;1.90;;;1.30;;
62024;SDS011;47978;49.118;12.146;2022-11-12T05:08:31;2.00;;;1.40;;
62024;SDS011;47978;49.118;12.146;2022-11-12T05:10:58;2.72;;;1.70;;
62024;SDS011;47978;49.118;12.146;2022-11-12T05:13:26;2.35;;;1.85;;
62024;SDS011;47978;49.118;12.146;2022-11-12T05:15:52;4.35;;;1.75;;
62024;SDS011;47978;49.118;12.146;2022-11-12T05:18:19;2.30;;;1.40;;
62024;SDS011;47978;49.118;12.146;2022-11-12T05:20:45;2.22;;;1.63;;
62024;SDS011;47978;49.118;12.146;2022-11-12T05:23:12;2.90;;;1.80;;
62024;SDS011;47978;49.118;12.146;2022-11-12T05:25:39;2.67;;;2.03;;
62024;SDS011;47978;49.118;12.146;2022-11-12T05:28:05;3.50;;;1.58;;
62024;SDS011;47978;49.118;12.146;2022-11-12T05:30:34;4.85;;;1.80;;
62024;SDS011;47978;49.118;12.146;2022-11-12T05:33:00;4.75;;;1.73;;
62024;SDS011;47978;49.118;12.146;2022-11-12T05:35:27;8.82;;;1.90;;
62024;SDS011;47978;49.118;12.146;2022-11-12T05:37:53;3.05;;;1.70;;
62024;SDS011;47978;49.118;12.146;2022-11-12T05:40:20;11.20;;;1.98;;
62024;SDS011;47978;49.118;12.146;2022-11-12T05:42:46;3.25;;;1.70;;
62024;SDS011;47978;49.118;12.146;2022-11-12T05:45:13;6.68;;;1.83;;
62024;SDS011;47978;49.118;12.146;2022-11-12T05:47:41;3.30;;;1.45;;
62024;SDS011;47978;49.118;12.146;2022-11-12T05:50:08;3.38;;;1.67;;
62024;SDS011;47978;49.118;12.146;2022-11-12T05:52:34;9.13;;;1.90;;
62024;SDS011;47978;49.118;12.146;2022-11-12T05:55:01;2.22;;;1.50;;
62024;SDS011;47978;49.118;12.146;2022-11-12T05:57:28;4.13;;;1.52;;
62024;SDS011;47978;49.118;12.146;2022-11-12T05:59:54;2.20;;;1.80;;
62024;SDS011;47978;49.118;12.146;2022-11-12T06:02:21;1.98;;;1.45;;
62024;SDS011;47978;49.118;12.146;2022-11-12T06:04:49;1.73;;;1.40;;
62024;SDS011;47978;49.118;12.146;2022-11-12T06:07:15;2.53;;;1.70;;
62024;SDS011;47978;49.118;12.146;2022-11-12T06:09:42;3.90;;;1.85;;
62024;SDS011;47978;49.118;12.146;2022-11-12T06:12:08;2.15;;;1.40;;
62024;SDS011;47978;49.118;12.146;2022-11-12T06:14:35;3.25;;;1.70;;
62024;SDS011;47978;49.118;12.146;2022-11-12T06:17:01;4.30;;;2.03;;
62024;SDS011;47978;49.118;12.146;2022-11-12T06:19:28;5.38;;;1.65;;
62024;SDS011;47978;49.118;12.146;2022-11-12T06:21:56;1.80;;;1.40;;
62024;SDS011;47978;49.118;12.146;2022-11-12T06:24:23;6.63;;;1.65;;
62024;SDS011;47978;49.118;12.146;2022-11-12T06:26:49;3.78;;;1.50;;
62024;SDS011;47978;49.118;12.146;2022-11-12T06:29:16;4.43;;;1.50;;
62024;SDS011;47978;49.118;12.146;2022-11-12T06:31:43;7.18;;;1.98;;
62024;SDS011;47978;49.118;12.146;2022-11-12T06:34:09;4.32;;;1.63;;
62024;SDS011;47978;49.118;12.146;2022-11-12T06:36:36;3.85;;;1.58;;
62024;SDS011;47978;49.118;12.146;2022-11-12T06:39:04;2.08;;;1.70;;
62024;SDS011;47978;49.118;12.146;2022-11-12T06:41:30;4.80;;;1.67;;
62024;SDS011;47978;49.118;12.146;2022-11-12T06:43:57;2.00;;;1.30;;
62024;SDS011;47978;49.118;12.146;2022-11-12T06:46:23;1.60;;;1.33;;
62024;SDS011;47978;49.118;12.146;2022-11-12T06:48:50;2.28;;;1.58;;
62024;SDS011;47978;49.118;12.146;2022-11-12T06:51:17;3.40;;;1.40;;
62024;SDS011;47978;49.118;12.146;2022-11-12T06:53:45;2.40;;;1.50;;
62024;SDS011;47978;49.118;12.146;2022-11-12T06:56:13;4.18;;;1.65;;
62024;SDS011;47978;49.118;12.146;2022-11-12T06:58:40;1.95;;;1.40;;
62024;SDS011;47978;49.118;12.146;2022-11-12T07:01:08;1.58;;;1.27;;
62024;SDS011;47978;49.118;12.146;2022-11-12T07:03:38;1.80;;;1.40;;
62024;SDS011;47978;49.118;12.146;2022-11-12T07:06:06;5.55;;;1.63;;
62024;SDS011;47978;49.118;12.146;2022-11-12T07:08:34;1.77;;;1.30;;
62024;SDS011;47978;49.118;12.146;2022-11-12T07:11:02;5.13;;;1.50;;
62024;SDS011;47978;49.118;12.146;2022-11-12T07:13:31;1.75;;;1.45;;
62024;SDS011;47978;49.118;12.146;2022-11-12T07:15:59;3.67;;;1.75;;
62024;SDS011;47978;49.118;12.146;2022-11-12T07:18:26;1.83;;;1.40;;
62024;SDS011;47978;49.118;12.146;2022-11-12T07:20:58;1.90;;;1.20;;
62024;SDS011;47978;49.118;12.146;2022-11-12T07:23:25;2.20;;;1.30;;
62024;SDS011;47978;49.118;12.146;2022-11-12T07:25:56;2.15;;;1.40;;
62024;SDS011;47978;49.118;12.146;2022-11-12T07:28:23;3.92;;;1.35;;
62024;SDS011;47978;49.118;12.146;2022-11-12T07:30:55;2.22;;;1.33;;
62024;SDS011;47978;49.118;12.146;2022-11-12T07:35:54;2.00;;;1.42;;
62024;SDS011;47978;49.118;12.146;2022-11-12T07:38:22;3.22;;;1.40;;
62024;SDS011;47978;49.118;12.146;2022-11-12T07:40:48;4.43;;;1.50;;
62024;SDS011;47978;49.118;12.146;2022-11-12T07:43:15;1.95;;;1.52;;
62024;SDS011;47978;49.118;12.146;2022-11-12T07:45:42;2.17;;;1.50;;
62024;SDS011;47978;49.118;12.146;2022-11-12T07:48:09;2.28;;;1.40;;
62024;SDS011;47978;49.118;12.146;2022-11-12T07:50:36;2.47;;;1.23;;
62024;SDS011;47978;49.118;12.146;2022-11-12T07:53:02;1.65;;;1.30;;
62024;SDS011;47978;49.118;12.146;2022-11-12T07:55:29;2.20;;;1.48;;
62024;SDS011;47978;49.118;12.146;2022-11-12T07:57:57;2.33;;;1.30;;
62024;SDS011;47978;49.118;12.146;2022-11-12T08:00:24;2.00;;;1.50;;
62024;SDS011;47978;49.118;12.146;2022-11-12T08:02:50;2.30;;;1.58;;
62024;SDS011;47978;49.118;12.146;2022-11-12T08:05:18;3.42;;;1.90;;
62024;SDS011;47978;49.118;12.146;2022-11-12T08:07:46;19.98;;;6.20;;
62024;SDS011;47978;49.118;12.146;2022-11-12T08:10:13;14.48;;;5.30;;
62024;SDS011;47978;49.118;12.146;2022-11-12T08:12:40;6.60;;;2.65;;
62024;SDS011;47978;49.118;12.146;2022-11-12T08:15:07;4.22;;;2.22;;
62024;SDS011;47978;49.118;12.146;2022-11-12T08:17:36;6.78;;;2.10;;
62024;SDS011;47978;49.118;12.146;2022-11-12T08:20:03;5.18;;;2.55;;
62024;SDS011;47978;49.118;12.146;2022-11-12T08:22:32;3.33;;;2.67;;
62024;SDS011;47978;49.118;12.146;2022-11-12T08:24:58;3.78;;;2.38;;
62024;SDS011;47978;49.118;12.146;2022-11-12T08:27:25;2.90;;;2.20;;
62024;SDS011;47978;49.118;12.146;2022-11-12T08:29:51;3.38;;;2.38;;
62024;SDS011;47978;49.118;12.146;2022-11-12T08:32:18;2.20;;;1.70;;
62024;SDS011;47978;49.118;12.146;2022-11-12T08:34:45;2.10;;;1.73;;
62024;SDS011;47978;49.118;12.146;2022-11-12T08:37:11;2.22;;;1.58;;
62024;SDS011;47978;49.118;12.146;2022-11-12T08:39:39;2.65;;;2.05;;
62024;SDS011;47978;49.118;12.146;2022-11-12T08:42:05;2.25;;;1.70;;
62024;SDS011;47978;49.118;12.146;2022-11-12T08:44:32;2.95;;;2.05;;
62024;SDS011;47978;49.118;12.146;2022-11-12T08:46:59;3.38;;;2.25;;
62024;SDS011;47978;49.118;12.146;2022-11-12T08:49:25;2.58;;;2.03;;
62024;SDS011;47978;49.118;12.146;2022-11-12T08:51:52;2.88;;;2.08;;
62024;SDS011;47978;49.118;12.146;2022-11-12T08:54:18;2.60;;;2.10;;
62024;SDS011;47978;49.118;12.146;2022-11-12T08:56:46;2.58;;;1.98;;
62024;SDS011;47978;49.118;12.146;2022-11-12T08:59:13;3.20;;;2.20;;
62024;SDS011;47978;49.118;12.146;2022-11-12T09:01:39;2.90;;;2.40;;
62024;SDS011;47978;49.118;12.146;2022-11-12T09:04:06;3.20;;;2.40;;
62024;SDS011;47978;49.118;12.146;2022-11-12T09:06:32;3.70;;;2.75;;
62024;SDS011;47978;49.118;12.146;2022-11-12T09:08:59;4.18;;;2.72;;
62024;SDS011;47978;49.118;12.146;2022-11-12T09:11:25;3.50;;;2.80;;
62024;SDS011;47978;49.118;12.146;2022-11-12T09:13:53;5.35;;;2.42;;
62024;SDS011;47978;49.118;12.146;2022-11-12T09:16:20;3.65;;;2.80;;
62024;SDS011;47978;49.118;12.146;2022-11-12T09:18:46;4.32;;;2.55;;
62024;SDS011;47978;49.118;12.146;2022-11-12T09:21:13;3.00;;;2.20;;
62024;SDS011;47978;49.118;12.146;2022-11-12T09:23:39;3.33;;;2.50;;
62024;SDS011;47978;49.118;12.146;2022-11-12T09:26:06;2.78;;;2.35;;
62024;SDS011;47978;49.118;12.146;2022-11-12T09:28:33;4.25;;;3.03;;
62024;SDS011;47978;49.118;12.146;2022-11-12T09:31:00;3.53;;;2.70;;
62024;SDS011;47978;49.118;12.146;2022-11-12T09:33:29;3.92;;;2.75;;
62024;SDS011;47978;49.118;12.146;2022-11-12T09:35:59;3.58;;;2.90;;
62024;SDS011;47978;49.118;12.146;2022-11-12T09:38:26;3.42;;;2.63;;
62024;SDS011;47978;49.118;12.146;2022-11-12T09:41:01;3.30;;;2.50;;
62024;SDS011;47978;49.118;12.146;2022-11-12T09:43:39;3.72;;;2.90;;
62024;SDS011;47978;49.118;12.146;2022-11-12T09:46:13;3.60;;;2.88;;
62024;SDS011;47978;49.118;12.146;2022-11-12T09:48:55;3.92;;;2.88;;
62024;SDS011;47978;49.118;12.146;2022-11-12T09:51:26;5.32;;;2.70;;
62024;SDS011;47978;49.118;12.146;2022-11-12T09:53:56;3.17;;;2.47;;
62024;SDS011;47978;49.118;12.146;2022-11-12T09:56:24;3.58;;;2.70;;
62024;SDS011;47978;49.118;12.146;2022-11-12T09:58:51;4.53;;;3.13;;
62024;SDS011;47978;49.118;12.146;2022-11-12T10:01:22;3.90;;;3.25;;
62024;SDS011;47978;49.118;12.146;2022-11-12T10:04:07;4.35;;;2.90;;
62024;SDS011;47978;49.118;12.146;2022-11-12T10:06:48;3.45;;;2.80;;
62024;SDS011;47978;49.118;12.146;2022-11-12T10:09:22;3.92;;;2.80;;
62024;SDS011;47978;49.118;12.146;2022-11-12T10:11:57;3.70;;;2.83;;
62024;SDS011;47978;49.118;12.146;2022-11-12T10:14:36;3.63;;;2.90;;
62024;SDS011;47978;49.118;12.146;2022-11-12T10:17:17;4.00;;;2.75;;
62024;SDS011;47978;49.118;12.146;2022-11-12T10:19:52;6.95;;;3.40;;
62024;SDS011;47978;49.118;12.146;2022-11-12T10:22:31;26.38;;;13.15;;
62024;SDS011;47978;49.118;12.146;2022-11-12T10:25:12;7.88;;;5.75;;
62024;SDS011;47978;49.118;12.146;2022-11-12T10:27:41;4.88;;;3.72;;
62024;SDS011;47978;49.118;12.146;2022-11-12T10:30:12;3.88;;;3.17;;
62024;SDS011;47978;49.118;12.146;2022-11-12T10:32:43;4.70;;;4.03;;
62024;SDS011;47978;49.118;12.146;2022-11-12T10:35:12;4.05;;;3.28;;
62024;SDS011;47978;49.118;12.146;2022-11-12T10:37:44;4.07;;;3.40;;
62024;SDS011;47978;49.118;12.146;2022-11-12T10:40:26;5.07;;;4.20;;
62024;SDS011;47978;49.118;12.146;2022-11-12T10:42:56;6.55;;;3.80;;
62024;SDS011;47978;49.118;12.146;2022-11-12T10:45:24;6.70;;;4.97;;
62024;SDS011;47978;49.118;12.146;2022-11-12T10:47:52;6.28;;;5.55;;
62024;SDS011;47978;49.118;12.146;2022-11-12T10:50:19;6.03;;;5.30;;
62024;SDS011;47978;49.118;12.146;2022-11-12T10:52:54;5.53;;;4.88;;
62024;SDS011;47978;49.118;12.146;2022-11-12T10:55:23;7.22;;;5.13;;
62024;SDS011;47978;49.118;12.146;2022-11-12T10:58:05;5.18;;;4.38;;
62024;SDS011;47978;49.118;12.146;2022-11-12T11:00:50;7.60;;;5.35;;
62024;SDS011;47978;49.118;12.146;2022-11-12T11:03:21;7.50;;;5.97;;
62024;SDS011;47978;49.118;12.146;2022-11-12T11:05:50;7.45;;;6.15;;
62024;SDS011;47978;49.118;12.146;2022-11-12T11:08:35;8.85;;;6.53;;
62024;SDS011;47978;49.118;12.146;2022-11-12T11:11:09;10.05;;;7.25;;
62024;SDS011;47978;49.118;12.146;2022-11-12T11:13:43;9.38;;;7.45;;
62024;SDS011;47978;49.118;12.146;2022-11-12T11:16:11;9.60;;;7.13;;
62024;SDS011;47978;49.118;12.146;2022-11-12T11:18:41;11.30;;;8.40;;
62024;SDS011;47978;49.118;12.146;2022-11-12T11:21:15;8.85;;;6.45;;
62024;SDS011;47978;49.118;12.146;2022-11-12T11:23:56;10.45;;;6.75;;
62024;SDS011;47978;49.118;12.146;2022-11-12T11:26:28;9.60;;;8.18;;
62024;SDS011;47978;49.118;12.146;2022-11-12T11:29:07;10.23;;;7.90;;
62024;SDS011;47978;49.118;12.146;2022-11-12T11:31:47;8.85;;;6.65;;
62024;SDS011;47978;49.118;12.146;2022-11-12T11:34:24;9.32;;;6.05;;
62024;SDS011;47978;49.118;12.146;2022-11-12T11:37:02;8.82;;;7.18;;
62024;SDS011;47978;49.118;12.146;2022-11-12T11:39:44;11.10;;;6.30;;
62024;SDS011;47978;49.118;12.146;2022-11-12T11:42:24;9.52;;;6.35;;
62024;SDS011;47978;49.118;12.146;2022-11-12T11:45:07;8.77;;;6.55;;
62024;SDS011;47978;49.118;12.146;2022-11-12T11:47:41;8.30;;;6.78;;
62024;SDS011;47978;49.118;12.146;2022-11-12T11:50:28;9.00;;;5.97;;
62024;SDS011;47978;49.118;12.146;2022-11-12T11:55:39;11.10;;;7.43;;
62024;SDS011;47978;49.118;12.146;2022-11-12T11:58:17;9.50;;;7.15;;
62024;SDS011;47978;49.118;12.146;2022-11-12T12:01:03;7.03;;;5.20;;
62024;SDS011;47978;49.118;12.146;2022-11-12T12:03:44;7.32;;;5.78;;
62024;SDS011;47978;49.118;12.146;2022-11-12T12:06:22;6.20;;;4.70;;
62024;SDS011;47978;49.118;12.146;2022-11-12T12:08:54;6.22;;;5.15;;
62024;SDS011;47978;49.118;12.146;2022-11-12T12:11:29;7.85;;;5.00;;
62024;SDS011;47978;49.118;12.146;2022-11-12T12:14:05;5.95;;;4.60;;
62024;SDS011;47978;49.118;12.146;2022-11-12T12:16:45;8.50;;;5.60;;
62024;SDS011;47978;49.118;12.146;2022-11-12T12:19:23;6.57;;;4.70;;
62024;SDS011;47978;49.118;12.146;2022-11-12T12:22:00;5.35;;;4.50;;
62024;SDS011;47978;49.118;12.146;2022-11-12T12:24:31;7.13;;;4.50;;
62024;SDS011;47978;49.118;12.146;2022-11-12T12:27:08;6.32;;;5.15;;
62024;SDS011;47978;49.118;12.146;2022-11-12T12:29:41;5.15;;;4.35;;
62024;SDS011;47978;49.118;12.146;2022-11-12T12:32:13;4.70;;;4.10;;
62024;SDS011;47978;49.118;12.146;2022-11-12T12:34:50;10.77;;;8.27;;
62024;SDS011;47978;49.118;12.146;2022-11-12T12:37:23;8.00;;;5.60;;
62024;SDS011;47978;49.118;12.146;2022-11-12T12:39:59;5.68;;;4.82;;
62024;SDS011;47978;49.118;12.146;2022-11-12T12:42:31;6.63;;;4.78;;
62024;SDS011;47978;49.118;12.146;2022-11-12T12:45:08;7.75;;;4.53;;
62024;SDS011;47978;49.118;12.146;2022-11-12T12:47:50;5.95;;;4.78;;
62024;SDS011;47978;49.118;12.146;2022-11-12T12:50:19;6.75;;;5.07;;
62024;SDS011;47978;49.118;12.146;2022-11-12T12:53:01;8.75;;;5.90;;
62024;SDS011;47978;49.118;12.146;2022-11-12T12:55:33;16.77;;;12.38;;
62024;SDS011;47978;49.118;12.146;2022-11-12T12:58:02;10.20;;;7.15;;
62024;SDS011;47978;49.118;12.146;2022-11-12T13:00:34;8.98;;;6.40;;
62024;SDS011;47978;49.118;12.146;2022-11-12T13:03:04;7.40;;;6.40;;
62024;SDS011;47978;49.118;12.146;2022-11-12T13:05:32;7.43;;;6.30;;
62024;SDS011;47978;49.118;12.146;2022-11-12T13:08:03;8.82;;;6.25;;
62024;SDS011;47978;49.118;12.146;2022-11-12T13:10:42;9.15;;;6.43;;
62024;SDS011;47978;49.118;12.146;2022-11-12T13:16:05;8.65;;;6.45;;
62024;SDS011;47978;49.118;12.146;2022-11-12T13:23:53;9.32;;;5.95;;
62024;SDS011;47978;49.118;12.146;2022-11-12T13:32:26;6.80;;;4.78;;
62024;SDS011;47978;49.118;12.146;2022-11-12T13:37:54;9.02;;;5.50;;
62024;SDS011;47978;49.118;12.146;2022-11-12T13:40:38;6.65;;;4.88;;
62024;SDS011;47978;49.118;12.146;2022-11-12T13:46:05;8.10;;;6.55;;
62024;SDS011;47978;49.118;12.146;2022-11-12T13:48:49;9.00;;;6.72;;
62024;SDS011;47978;49.118;12.146;2022-11-12T13:51:21;7.80;;;6.03;;
62024;SDS011;47978;49.118;12.146;2022-11-12T13:53:53;15.38;;;10.95;;
62024;SDS011;47978;49.118;12.146;2022-11-12T13:56:25;19.38;;;14.10;;
62024;SDS011;47978;49.118;12.146;2022-11-12T13:58:53;10.40;;;8.18;;
62024;SDS011;47978;49.118;12.146;2022-11-12T14:01:20;9.55;;;6.93;;
62024;SDS011;47978;49.118;12.146;2022-11-12T14:03:49;9.00;;;6.68;;
62024;SDS011;47978;49.118;12.146;2022-11-12T14:06:26;7.75;;;6.32;;
62024;SDS011;47978;49.118;12.146;2022-11-12T14:09:07;7.35;;;5.85;;
62024;SDS011;47978;49.118;12.146;2022-11-12T14:11:50;6.78;;;5.72;;
62024;SDS011;47978;49.118;12.146;2022-11-12T14:14:26;7.43;;;6.07;;
62024;SDS011;47978;49.118;12.146;2022-11-12T14:17:08;7.50;;;5.88;;
62024;SDS011;47978;49.118;12.146;2022-11-12T14:22:45;21.35;;;12.48;;
62024;SDS011;47978;49.118;12.146;2022-11-12T14:25:15;34.20;;;17.10;;
62024;SDS011;47978;49.118;12.146;2022-11-12T14:27:45;12.55;;;6.90;;
62024;SDS011;47978;49.118;12.146;2022-11-12T14:30:13;9.77;;;6.72;;
62024;SDS011;47978;49.118;12.146;2022-11-12T14:32:46;10.30;;;7.22;;
62024;SDS011;47978;49.118;12.146;2022-11-12T14:35:17;9.18;;;6.68;;
62024;SDS011;47978;49.118;12.146;2022-11-12T14:37:52;9.38;;;6.82;;
62024;SDS011;47978;49.118;12.146;2022-11-12T14:40:23;9.85;;;6.30;;
62024;SDS011;47978;49.118;12.146;2022-11-12T14:42:53;9.90;;;6.80;;
62024;SDS011;47978;49.118;12.146;2022-11-12T14:45:20;8.98;;;6.57;;
62024;SDS011;47978;49.118;12.146;2022-11-12T14:47:48;13.82;;;9.75;;
62024;SDS011;47978;49.118;12.146;2022-11-12T14:50:18;10.15;;;7.20;;
62024;SDS011;47978;49.118;12.146;2022-11-12T14:52:51;10.02;;;7.03;;
62024;SDS011;47978;49.118;12.146;2022-11-12T14:55:23;8.88;;;6.97;;
62024;SDS011;47978;49.118;12.146;2022-11-12T14:57:54;11.73;;;8.07;;
62024;SDS011;47978;49.118;12.146;2022-11-12T15:00:34;13.27;;;8.68;;
62024;SDS011;47978;49.118;12.146;2022-11-12T15:03:05;11.93;;;8.30;;
62024;SDS011;47978;49.118;12.146;2022-11-12T15:05:32;10.80;;;7.72;;
62024;SDS011;47978;49.118;12.146;2022-11-12T15:08:00;12.18;;;8.00;;
62024;SDS011;47978;49.118;12.146;2022-11-12T15:10:29;17.08;;;12.32;;
62024;SDS011;47978;49.118;12.146;2022-11-12T15:13:06;18.20;;;12.77;;
62024;SDS011;47978;49.118;12.146;2022-11-12T15:15:36;14.95;;;10.65;;
62024;SDS011;47978;49.118;12.146;2022-11-12T15:18:05;17.42;;;12.90;;
62024;SDS011;47978;49.118;12.146;2022-11-12T15:20:33;16.85;;;12.40;;